createdAt,value
2018-06-12T00:32:08.988Z,8.60
2018-06-12T00:36:13.304Z,11.07
2018-06-12T00:40:17.595Z,10.00
2018-06-12T00:44:21.981Z,10.70
2018-06-12T00:48:26.210Z,9.90
2018-06-12T00:52:30.628Z,10.47
2018-06-12T00:56:45.731Z,9.43
2018-06-12T01:00:50.109Z,9.10
2018-06-12T01:04:54.473Z,10.77
2018-06-12T01:08:58.697Z,10.20
2018-06-12T01:13:03.377Z,11.10
2018-06-12T01:17:07.577Z,9.80
2018-06-12T01:21:11.959Z,10.50
2018-06-12T01:25:16.189Z,9.63
2018-06-12T01:29:20.644Z,8.80
2018-06-12T01:33:24.856Z,9.70
2018-06-12T01:37:29.501Z,9.00
2018-06-12T01:41:33.690Z,8.33
2018-06-12T01:45:37.996Z,7.77
2018-06-12T01:49:42.221Z,8.93
2018-06-12T01:53:46.540Z,8.23
2018-06-12T01:57:50.819Z,9.50
2018-06-12T02:01:55.152Z,8.80
2018-06-12T02:05:59.352Z,8.77
2018-06-12T02:10:03.845Z,8.97
2018-06-12T02:14:08.058Z,8.30
2018-06-12T02:18:12.447Z,9.07
2018-06-12T02:22:16.662Z,7.83
2018-06-12T02:26:20.886Z,8.87
2018-06-12T02:30:25.395Z,9.23
2018-06-12T02:34:29.636Z,9.33
2018-06-12T02:38:34.121Z,8.53
2018-06-12T02:42:37.810Z,8.33
2018-06-12T02:46:42.380Z,8.47
2018-06-12T02:50:46.160Z,7.03
2018-06-12T02:54:51.565Z,7.57
2018-06-12T02:58:55.761Z,8.17
2018-06-12T03:03:00.112Z,8.40
2018-06-12T03:07:04.316Z,8.00
2018-06-12T03:11:08.632Z,9.37
2018-06-12T03:15:12.852Z,8.47
2018-06-12T03:19:17.296Z,8.20
2018-06-12T03:23:21.567Z,6.93
2018-06-12T03:27:25.855Z,8.43
2018-06-12T03:31:30.178Z,8.93
2018-06-12T03:35:34.515Z,9.43
2018-06-12T03:39:38.776Z,9.20
2018-06-12T03:43:43.435Z,7.60
2018-06-12T03:47:47.668Z,7.80
2018-06-12T03:51:51.544Z,9.37
2018-06-12T03:55:55.748Z,8.53
2018-06-12T04:00:00.068Z,7.33
2018-06-12T04:04:04.301Z,8.13
2018-06-12T04:08:08.700Z,8.30
2018-06-12T04:12:12.966Z,7.07
2018-06-12T04:16:17.180Z,6.60
2018-06-12T04:20:21.572Z,7.10
2018-06-12T04:24:25.793Z,7.87
2018-06-12T04:28:30.124Z,7.03
2018-06-12T04:32:34.321Z,7.57
2018-06-12T04:36:38.600Z,7.80
2018-06-12T04:40:42.799Z,6.90
2018-06-12T04:44:47.132Z,7.43
2018-06-12T04:48:51.449Z,7.87
2018-06-12T04:52:55.765Z,7.83
2018-06-12T04:56:59.482Z,8.30
2018-06-12T05:01:03.228Z,6.53
2018-06-12T05:05:07.464Z,8.10
2018-06-12T05:09:11.893Z,7.67
2018-06-12T05:13:16.163Z,6.70
2018-06-12T05:17:20.375Z,4.93
2018-06-12T05:21:24.663Z,4.73
2018-06-12T05:25:29.082Z,4.00
2018-06-12T05:29:33.527Z,5.13
2018-06-12T05:33:37.762Z,5.33
2018-06-12T05:37:42.211Z,4.90
2018-06-12T05:41:46.414Z,5.30
2018-06-12T05:45:50.789Z,5.50
2018-06-12T05:49:55.006Z,5.17
2018-06-12T05:53:59.326Z,5.50
2018-06-12T05:58:03.597Z,4.63
2018-06-12T06:02:08.047Z,5.60
2018-06-12T06:06:12.280Z,6.00
2018-06-12T06:10:16.649Z,5.17
2018-06-12T06:14:20.919Z,5.13
2018-06-12T06:18:25.343Z,4.87
2018-06-12T06:22:29.613Z,5.70
2018-06-12T06:26:33.841Z,4.87
2018-06-12T06:30:38.231Z,4.47
2018-06-12T06:34:42.461Z,5.40
2018-06-12T06:38:46.867Z,5.40
2018-06-12T06:42:51.085Z,4.97
2018-06-12T06:46:55.396Z,4.93
2018-06-12T06:50:59.656Z,4.80
2018-06-12T06:55:03.985Z,4.80
2018-06-12T06:59:08.377Z,4.97
2018-06-12T07:03:12.747Z,4.50
2018-06-12T07:07:16.923Z,4.47
2018-06-12T07:11:21.197Z,4.80
2018-06-12T07:15:25.460Z,4.33
2018-06-12T07:19:29.689Z,4.47
2018-06-12T07:23:34.040Z,5.13
2018-06-12T07:27:38.333Z,4.30
2018-06-12T07:31:42.546Z,4.27
2018-06-12T07:35:46.757Z,4.03
2018-06-12T07:39:51.088Z,4.10
2018-06-12T07:43:55.418Z,4.50
2018-06-12T07:47:59.636Z,3.13
2018-06-12T07:52:04.012Z,3.13
2018-06-12T07:56:08.265Z,3.53
2018-06-12T08:00:12.546Z,3.93
2018-06-12T08:04:16.785Z,3.90
2018-06-12T08:08:21.144Z,4.37
2018-06-12T08:12:25.383Z,3.80
2018-06-12T08:16:29.767Z,2.67
2018-06-12T08:20:33.995Z,2.87
2018-06-12T08:24:38.303Z,3.80
2018-06-12T08:28:42.521Z,3.40
2018-06-12T08:32:46.756Z,4.03
2018-06-12T08:36:51.009Z,3.60
2018-06-12T08:40:55.250Z,3.73
2018-06-12T08:44:59.661Z,3.60
2018-06-12T08:49:03.909Z,3.50
2018-06-12T08:53:08.205Z,3.80
2018-06-12T08:57:12.817Z,3.90
2018-06-12T09:01:17.283Z,4.00
2018-06-12T09:05:21.738Z,4.40
2018-06-12T09:09:25.550Z,4.07
2018-06-12T09:13:29.904Z,4.60
2018-06-12T09:17:34.447Z,3.97
2018-06-12T09:21:39.173Z,3.20
2018-06-12T09:25:43.536Z,3.93
2018-06-12T09:29:47.915Z,3.97
2018-06-12T09:33:52.270Z,4.57
2018-06-12T09:37:56.500Z,2.63
2018-06-12T09:42:00.609Z,3.13
2018-06-12T09:46:04.913Z,3.90
2018-06-12T09:50:09.236Z,3.30
2018-06-12T09:54:13.539Z,3.50
2018-06-12T09:58:17.804Z,3.77
2018-06-12T10:02:22.167Z,4.30
2018-06-12T10:06:26.456Z,4.20
2018-06-12T10:10:30.682Z,3.93
2018-06-12T10:14:34.973Z,4.53
2018-06-12T10:18:39.229Z,4.67
2018-06-12T10:22:44.022Z,4.73
2018-06-12T10:26:50.248Z,4.27
2018-06-12T10:30:54.868Z,4.53
2018-06-12T10:34:59.310Z,4.50
2018-06-12T10:39:03.963Z,3.70
2018-06-12T10:43:08.417Z,4.10
2018-06-12T10:47:12.669Z,6.33
2018-06-12T10:51:17.016Z,4.30
2018-06-12T10:55:21.428Z,5.40
2018-06-12T10:59:25.926Z,6.33
2018-06-12T11:03:30.145Z,4.93
2018-06-12T11:07:34.520Z,5.33
2018-06-12T11:11:38.732Z,4.30
2018-06-12T11:15:43.130Z,4.90
2018-06-12T11:19:47.356Z,4.13
2018-06-12T11:23:51.609Z,4.23
2018-06-12T11:27:55.921Z,4.20
2018-06-12T11:32:00.136Z,5.67
2018-06-12T11:36:04.481Z,4.93
2018-06-12T11:40:08.788Z,5.17
2018-06-12T11:44:13.090Z,4.90
2018-06-12T11:48:17.277Z,6.13
2018-06-12T11:52:21.571Z,5.10
2018-06-12T11:56:25.984Z,5.37
2018-06-12T12:00:30.310Z,5.73
2018-06-12T12:04:34.557Z,4.70
2018-06-12T12:08:38.899Z,5.13
2018-06-12T12:12:43.651Z,5.10
2018-06-12T12:16:48.082Z,5.57
2018-06-12T12:20:52.500Z,4.90
2018-06-12T12:24:56.828Z,4.60
2018-06-12T12:29:01.047Z,3.80
2018-06-12T12:33:05.554Z,4.87
2018-06-12T12:37:09.906Z,5.20
2018-06-12T12:41:14.169Z,4.67
2018-06-12T12:45:18.523Z,4.80
2018-06-12T12:49:22.803Z,5.00
2018-06-12T12:53:27.183Z,4.80
2018-06-12T12:57:31.389Z,4.90
2018-06-12T13:01:35.687Z,4.80
2018-06-12T13:05:40.030Z,3.77
2018-06-12T13:09:44.305Z,4.83
2018-06-12T13:13:48.566Z,6.63
2018-06-12T13:17:52.796Z,5.17
2018-06-12T13:21:57.007Z,4.90
2018-06-12T13:26:01.412Z,4.57
2018-06-12T13:30:05.723Z,3.90
2018-06-12T13:34:10.096Z,5.00
2018-06-12T13:38:14.402Z,4.10
2018-06-12T13:42:18.769Z,5.60
2018-06-12T13:46:22.995Z,5.33
2018-06-12T13:50:27.261Z,5.33
2018-06-12T13:54:31.491Z,5.03
2018-06-12T13:58:35.828Z,4.10
2018-06-12T14:02:40.044Z,4.27
2018-06-12T14:06:44.389Z,4.47
2018-06-12T14:10:48.595Z,5.00
2018-06-12T14:14:52.858Z,4.70
2018-06-12T14:18:57.128Z,3.93
2018-06-12T14:23:01.808Z,4.17
2018-06-12T14:27:06.066Z,5.00
2018-06-12T14:31:10.347Z,4.90
2018-06-12T14:35:14.558Z,4.80
2018-06-12T14:39:18.792Z,5.53
2018-06-12T14:43:23.090Z,4.93
2018-06-12T14:47:27.643Z,4.47
2018-06-12T14:51:31.973Z,3.90
2018-06-12T14:55:36.405Z,4.20
2018-06-12T14:59:40.676Z,4.00
2018-06-12T15:03:44.975Z,3.50
2018-06-12T15:07:49.341Z,3.73
2018-06-12T15:11:53.787Z,3.13
2018-06-12T15:15:58.019Z,4.03
2018-06-12T15:20:02.234Z,3.10
2018-06-12T15:24:06.668Z,2.83
2018-06-12T15:28:11.003Z,4.03
2018-06-12T15:32:15.215Z,3.03
2018-06-12T15:36:19.622Z,3.80
2018-06-12T15:40:24.203Z,3.67
2018-06-12T15:44:28.541Z,3.20
2018-06-12T15:48:32.861Z,2.43
2018-06-12T15:52:37.379Z,3.20
2018-06-12T15:56:41.628Z,2.57
2018-06-12T16:00:45.928Z,3.20
2018-06-12T16:04:50.250Z,2.97
2018-06-12T16:08:57.062Z,2.47
2018-06-12T16:13:01.557Z,1.93
2018-06-12T16:17:05.605Z,2.43
2018-06-12T16:21:10.288Z,3.53
2018-06-12T16:25:14.819Z,2.53
2018-06-12T16:29:19.430Z,2.27
2018-06-12T16:33:24.488Z,2.17
2018-06-12T16:37:28.828Z,5.03
2018-06-12T16:41:33.157Z,2.33
2018-06-12T16:45:37.471Z,2.27
2018-06-12T16:49:41.536Z,2.30
2018-06-12T16:53:45.803Z,3.50
2018-06-12T16:57:50.043Z,3.20
2018-06-12T17:01:54.657Z,3.23
2018-06-12T17:05:58.925Z,5.53
2018-06-12T17:10:03.153Z,3.57
2018-06-12T17:14:07.416Z,2.30
2018-06-12T17:18:11.849Z,2.73
2018-06-12T17:22:16.054Z,2.20
2018-06-12T17:26:20.282Z,2.13
2018-06-12T17:30:24.256Z,2.60
2018-06-12T17:34:28.580Z,2.77
2018-06-12T17:38:33.161Z,2.07
2018-06-12T17:42:37.763Z,2.40
2018-06-12T17:46:41.707Z,2.90
2018-06-12T17:50:46.202Z,2.80
2018-06-12T17:54:50.875Z,2.50
2018-06-12T17:58:55.234Z,2.53
2018-06-12T18:02:59.924Z,2.73
2018-06-12T18:07:04.476Z,2.37
2018-06-12T18:11:08.745Z,2.53
2018-06-12T18:15:13.194Z,2.57
2018-06-12T18:19:18.806Z,2.50
2018-06-12T18:23:23.426Z,2.60
2018-06-12T18:27:27.727Z,2.33
2018-06-12T18:31:32.310Z,2.10
2018-06-12T18:35:36.730Z,1.97
2018-06-12T18:39:41.094Z,2.97
2018-06-12T18:43:45.818Z,2.60
2018-06-12T18:47:50.321Z,2.43
2018-06-12T18:51:54.892Z,2.57
2018-06-12T18:55:59.103Z,2.33
2018-06-12T19:00:03.614Z,3.57
2018-06-12T19:04:08.101Z,2.90
2018-06-12T19:08:15.033Z,2.30
2018-06-12T19:12:19.373Z,2.27
2018-06-12T19:16:23.213Z,3.97
2018-06-12T19:20:27.410Z,2.33
2018-06-12T19:24:31.739Z,2.87
2018-06-12T19:28:35.959Z,3.10
2018-06-12T19:32:40.331Z,2.40
2018-06-12T19:36:44.552Z,3.10
2018-06-12T19:40:48.455Z,2.83
2018-06-12T19:44:52.623Z,1.97
2018-06-12T19:48:56.975Z,2.70
2018-06-12T19:53:03.241Z,3.70
2018-06-12T19:57:07.904Z,3.23
2018-06-12T20:01:12.238Z,3.63
2018-06-12T20:05:17.747Z,3.03
2018-06-12T20:09:22.153Z,2.57
2018-06-12T20:13:26.502Z,2.87
2018-06-12T20:17:30.850Z,2.50
2018-06-12T20:21:34.564Z,2.70
2018-06-12T20:25:39.133Z,2.17
2018-06-12T20:29:43.356Z,2.90
2018-06-12T20:33:48.301Z,2.53
2018-06-12T20:37:59.470Z,2.80
2018-06-12T20:42:04.160Z,3.30
2018-06-12T20:46:08.506Z,2.77
2018-06-12T20:50:12.732Z,3.13
2018-06-12T20:54:17.070Z,2.33
2018-06-12T20:58:21.289Z,2.70
2018-06-12T21:02:25.507Z,2.27
2018-06-12T21:06:30.143Z,2.50
2018-06-12T21:10:34.357Z,3.00
2018-06-12T21:14:38.661Z,2.67
2018-06-12T21:18:42.866Z,2.53
2018-06-12T21:22:47.098Z,3.37
2018-06-12T21:26:51.315Z,2.40
2018-06-12T21:30:55.548Z,2.90
2018-06-12T21:34:59.718Z,2.60
2018-06-12T21:39:05.444Z,3.53
2018-06-12T21:43:09.704Z,3.33
2018-06-12T21:47:13.991Z,3.17
2018-06-12T21:51:18.179Z,2.57
2018-06-12T21:55:22.445Z,2.77
2018-06-12T21:59:26.624Z,2.17
2018-06-12T22:03:31.054Z,2.53
2018-06-12T22:07:35.385Z,3.20
2018-06-12T22:11:39.640Z,2.13
2018-06-12T22:15:43.875Z,3.10
2018-06-12T22:19:48.122Z,2.80
2018-06-12T22:23:52.400Z,2.40
2018-06-12T22:27:56.689Z,3.27
2018-06-12T22:32:00.661Z,2.90
2018-06-12T22:36:04.865Z,3.30
2018-06-12T22:40:09.196Z,3.90
2018-06-12T22:44:13.420Z,4.33
2018-06-12T22:48:17.781Z,5.23
2018-06-12T22:52:21.960Z,4.53
2018-06-12T22:56:26.336Z,3.80
2018-06-12T23:00:30.508Z,5.70
2018-06-12T23:04:34.848Z,4.27
2018-06-12T23:08:39.012Z,5.30
2018-06-12T23:12:43.317Z,5.20
2018-06-12T23:16:47.598Z,5.07
2018-06-12T23:21:06.826Z,4.87
2018-06-12T23:25:11.163Z,6.23
2018-06-12T23:29:15.406Z,3.90
2018-06-12T23:33:19.697Z,3.33
2018-06-12T23:37:23.882Z,4.10
2018-06-12T23:41:28.209Z,5.30
2018-06-12T23:45:32.395Z,4.60
2018-06-12T23:49:36.643Z,4.40
2018-06-12T23:53:40.873Z,3.73
2018-06-12T23:57:45.121Z,4.73
